createdAt,value
2018-05-04T00:00:52.140Z,14.33
2018-05-04T00:03:19.682Z,15.00
2018-05-04T00:05:47.179Z,15.00
2018-05-04T00:08:14.705Z,15.13
2018-05-04T00:10:42.216Z,16.37
2018-05-04T00:13:09.739Z,15.77
2018-05-04T00:15:37.233Z,16.30
2018-05-04T00:18:04.758Z,17.03
2018-05-04T00:20:32.253Z,16.20
2018-05-04T00:22:59.763Z,16.77
2018-05-04T00:25:27.253Z,16.17
2018-05-04T00:27:54.774Z,17.40
2018-05-04T00:30:22.279Z,16.83
2018-05-04T00:32:49.773Z,16.83
2018-05-04T00:35:17.288Z,15.90
2018-05-04T00:37:44.786Z,15.63
2018-05-04T00:40:12.310Z,16.00
2018-05-04T00:42:39.810Z,16.07
2018-05-04T00:45:07.346Z,16.93
2018-05-04T00:47:34.850Z,16.20
2018-05-04T00:50:02.364Z,16.37
2018-05-04T00:52:29.922Z,15.77
2018-05-04T00:54:57.419Z,15.63
2018-05-04T00:57:24.909Z,16.00
2018-05-04T00:59:52.433Z,15.80
2018-05-04T01:02:19.930Z,15.77
2018-05-04T01:04:47.430Z,14.90
2018-05-04T01:07:14.954Z,14.73
2018-05-04T01:09:42.485Z,16.20
2018-05-04T01:12:09.974Z,15.13
2018-05-04T01:14:37.484Z,14.87
2018-05-04T01:17:04.973Z,16.30
2018-05-04T01:19:32.471Z,15.13
2018-05-04T01:21:59.997Z,14.53
2018-05-04T01:24:27.857Z,10.17
2018-05-04T01:26:55.352Z,14.17
2018-05-04T01:29:22.869Z,15.60
2018-05-04T01:31:50.390Z,15.50
2018-05-04T01:34:17.882Z,15.63
2018-05-04T01:36:46.412Z,16.07
2018-05-04T01:39:13.907Z,15.77
2018-05-04T01:41:41.403Z,15.97
2018-05-04T01:44:08.934Z,15.40
2018-05-04T01:46:36.439Z,15.30
2018-05-04T01:49:03.937Z,15.47
2018-05-04T01:51:31.463Z,17.10
2018-05-04T01:53:58.958Z,15.60
2018-05-04T01:56:26.693Z,15.93
2018-05-04T01:58:54.214Z,16.33
2018-05-04T02:01:21.718Z,15.40
2018-05-04T02:03:49.213Z,16.60
2018-05-04T02:06:16.739Z,17.00
2018-05-04T02:08:44.232Z,16.87
2018-05-04T02:11:11.721Z,16.50
2018-05-04T02:13:39.251Z,17.17
2018-05-04T02:16:06.745Z,17.03
2018-05-04T02:18:34.242Z,16.60
2018-05-04T02:21:01.766Z,17.03
2018-05-04T02:23:29.270Z,14.87
2018-05-04T02:25:56.763Z,17.13
2018-05-04T02:28:24.276Z,17.07
2018-05-04T02:30:51.784Z,17.47
2018-05-04T02:33:19.286Z,17.50
2018-05-04T02:35:46.822Z,17.60
2018-05-04T02:38:14.324Z,17.93
2018-05-04T02:40:41.826Z,18.77
2018-05-04T02:43:09.343Z,17.53
2018-05-04T02:45:36.838Z,18.03
2018-05-04T02:48:04.336Z,15.27
2018-05-04T02:50:31.858Z,17.50
2018-05-04T02:52:59.351Z,17.07
2018-05-04T02:55:26.935Z,16.47
2018-05-04T02:57:54.409Z,18.13
2018-05-04T03:00:21.906Z,18.47
2018-05-04T03:02:49.402Z,16.63
2018-05-04T03:05:16.920Z,18.23
2018-05-04T03:07:44.408Z,17.00
2018-05-04T03:10:11.927Z,18.53
2018-05-04T03:12:39.450Z,16.90
2018-05-04T03:15:06.950Z,16.43
2018-05-04T03:17:34.438Z,16.37
2018-05-04T03:20:01.957Z,18.03
2018-05-04T03:22:29.453Z,18.67
2018-05-04T03:24:56.955Z,16.37
2018-05-04T03:27:24.481Z,17.30
2018-05-04T03:29:51.987Z,17.53
2018-05-04T03:32:19.486Z,17.27
2018-05-04T03:34:47.013Z,17.67
2018-05-04T03:37:14.517Z,15.67
2018-05-04T03:39:42.019Z,16.20
2018-05-04T03:42:09.544Z,15.10
2018-05-04T03:44:37.042Z,16.33
2018-05-04T03:47:04.546Z,15.53
2018-05-04T03:49:32.070Z,15.67
2018-05-04T03:51:59.632Z,15.07
2018-05-04T03:54:27.085Z,15.13
2018-05-04T03:57:07.438Z,14.97
2018-05-04T04:02:45.489Z,14.23
2018-05-04T04:05:12.994Z,15.67
2018-05-04T04:07:40.501Z,11.10
2018-05-04T04:10:08.022Z,14.57
2018-05-04T04:12:35.539Z,14.87
2018-05-04T04:15:03.021Z,14.50
2018-05-04T04:17:30.544Z,13.00
2018-05-04T04:19:58.042Z,14.37
2018-05-04T04:22:25.530Z,13.77
2018-05-04T04:24:53.044Z,13.93
2018-05-04T04:27:20.542Z,12.33
2018-05-04T04:29:48.057Z,14.20
2018-05-04T04:32:15.586Z,14.63
2018-05-04T04:34:43.105Z,13.57
2018-05-04T04:37:10.610Z,13.53
2018-05-04T04:39:38.136Z,12.60
2018-05-04T04:42:05.638Z,13.00
2018-05-04T04:44:33.125Z,13.60
2018-05-04T04:47:00.649Z,14.17
2018-05-04T04:49:28.146Z,13.13
2018-05-04T04:51:55.651Z,12.60
2018-05-04T04:54:23.180Z,12.30
2018-05-04T04:56:50.686Z,12.37
2018-05-04T04:59:18.195Z,10.67
2018-05-04T05:01:45.737Z,10.87
2018-05-04T05:04:13.252Z,11.00
2018-05-04T05:06:40.750Z,11.17
2018-05-04T05:09:08.269Z,10.43
2018-05-04T05:11:35.769Z,10.23
2018-05-04T05:14:03.311Z,9.50
2018-05-04T05:16:30.828Z,10.73
2018-05-04T05:18:58.327Z,10.13
2018-05-04T05:21:25.821Z,10.23
2018-05-04T05:23:53.332Z,10.23
2018-05-04T05:26:20.838Z,10.10
2018-05-04T05:28:48.341Z,10.57
2018-05-04T05:31:15.871Z,10.87
2018-05-04T05:33:43.421Z,11.77
2018-05-04T05:36:10.925Z,11.87
2018-05-04T05:38:38.446Z,11.80
2018-05-04T05:41:05.947Z,11.73
2018-05-04T05:43:33.441Z,12.30
2018-05-04T05:46:00.965Z,11.40
2018-05-04T05:48:28.456Z,10.87
2018-05-04T05:50:55.954Z,11.07
2018-05-04T05:53:23.469Z,11.77
2018-05-04T05:55:50.972Z,13.40
2018-05-04T05:58:18.467Z,11.27
2018-05-04T06:00:46.970Z,11.60
2018-05-04T06:03:14.510Z,12.60
2018-05-04T06:05:42.018Z,12.37
2018-05-04T06:08:09.547Z,12.80
2018-05-04T06:10:37.041Z,11.53
2018-05-04T06:13:04.546Z,11.07
2018-05-04T06:15:32.066Z,10.67
2018-05-04T06:17:59.586Z,10.13
2018-05-04T06:20:27.082Z,10.43
2018-05-04T06:22:54.609Z,10.93
2018-05-04T06:25:22.154Z,11.23
2018-05-04T06:27:49.648Z,12.03
2018-05-04T06:30:17.166Z,11.63
2018-05-04T06:32:44.679Z,11.30
2018-05-04T06:35:12.185Z,10.27
2018-05-04T06:37:40.613Z,10.47
2018-05-04T06:40:08.134Z,11.20
2018-05-04T06:42:35.708Z,10.20
2018-05-04T06:45:03.282Z,9.97
2018-05-04T06:47:30.836Z,10.23
2018-05-04T06:49:58.342Z,9.23
2018-05-04T06:52:25.864Z,10.33
2018-05-04T06:54:53.362Z,9.80
2018-05-04T06:57:20.862Z,9.83
2018-05-04T06:59:48.383Z,9.80
2018-05-04T07:02:15.886Z,10.67
2018-05-04T07:04:43.394Z,10.23
2018-05-04T07:07:10.917Z,9.87
2018-05-04T07:09:38.413Z,9.57
2018-05-04T07:12:05.911Z,10.10
2018-05-04T07:14:33.438Z,10.40
2018-05-04T07:17:00.932Z,9.27
2018-05-04T07:19:28.421Z,10.47
2018-05-04T07:21:55.953Z,10.83
2018-05-04T07:24:23.451Z,11.00
2018-05-04T07:26:50.946Z,11.60
2018-05-04T07:29:18.470Z,11.90
2018-05-04T07:31:45.977Z,10.23
2018-05-04T07:34:13.473Z,10.70
2018-05-04T07:36:40.992Z,9.83
2018-05-04T07:39:09.594Z,10.43
2018-05-04T07:41:37.104Z,10.27
2018-05-04T07:44:04.683Z,9.83
2018-05-04T07:46:32.187Z,10.33
2018-05-04T07:48:59.681Z,10.10
2018-05-04T07:51:27.193Z,9.80
2018-05-04T07:53:54.681Z,9.33
2018-05-04T07:56:34.090Z,10.27
2018-05-04T07:59:01.588Z,9.93
2018-05-04T08:01:29.087Z,9.63
2018-05-04T08:03:56.606Z,9.63
2018-05-04T08:06:24.098Z,10.73
2018-05-04T08:08:51.593Z,9.80
2018-05-04T08:11:19.114Z,11.07
2018-05-04T08:13:46.622Z,10.60
2018-05-04T08:16:14.132Z,10.73
2018-05-04T08:18:41.651Z,9.83
2018-05-04T08:21:09.147Z,9.80
2018-05-04T08:23:36.645Z,10.77
2018-05-04T08:26:04.165Z,10.03
2018-05-04T08:28:31.666Z,10.37
2018-05-04T08:30:59.169Z,11.53
2018-05-04T08:33:26.697Z,11.33
2018-05-04T08:35:54.193Z,10.50
2018-05-04T08:38:21.695Z,10.40
2018-05-04T08:40:49.302Z,9.77
2018-05-04T08:43:16.753Z,8.87
2018-05-04T08:45:44.258Z,9.70
2018-05-04T08:48:11.840Z,9.97
2018-05-04T08:50:39.317Z,10.43
2018-05-04T08:53:06.815Z,9.70
2018-05-04T08:55:34.339Z,10.10
2018-05-04T08:58:01.858Z,9.63
2018-05-04T09:00:29.354Z,9.77
2018-05-04T09:02:56.882Z,10.37
2018-05-04T09:05:24.502Z,10.37
2018-05-04T09:07:51.893Z,9.50
2018-05-04T09:10:19.421Z,10.40
2018-05-04T09:12:46.984Z,10.63
2018-05-04T09:15:14.437Z,10.80
2018-05-04T09:17:41.964Z,10.93
2018-05-04T09:20:09.467Z,11.37
2018-05-04T09:22:36.972Z,10.03
2018-05-04T09:25:04.499Z,9.77
2018-05-04T09:27:31.989Z,9.77
2018-05-04T09:29:59.490Z,10.20
2018-05-04T09:32:27.005Z,10.00
2018-05-04T09:34:54.502Z,10.67
2018-05-04T09:37:22.029Z,9.47
2018-05-04T09:39:49.558Z,10.53
2018-05-04T09:42:17.066Z,10.83
2018-05-04T09:44:44.564Z,9.77
2018-05-04T09:47:12.091Z,9.00
2018-05-04T09:49:39.591Z,10.10
2018-05-04T09:52:07.090Z,9.77
2018-05-04T09:54:34.648Z,9.27
2018-05-04T09:57:02.141Z,9.50
2018-05-04T09:59:29.638Z,8.93
2018-05-04T10:01:57.150Z,9.73
2018-05-04T10:04:24.646Z,9.93
2018-05-04T10:06:52.144Z,9.03
2018-05-04T10:09:19.666Z,9.90
2018-05-04T10:11:47.156Z,9.80
2018-05-04T10:14:14.658Z,9.97
2018-05-04T10:16:42.190Z,9.00
2018-05-04T10:19:09.683Z,8.63
2018-05-04T10:21:38.181Z,8.43
2018-05-04T10:24:05.701Z,9.63
2018-05-04T10:26:33.203Z,10.10
2018-05-04T10:29:00.715Z,10.03
2018-05-04T10:31:28.265Z,9.37
2018-05-04T10:33:55.758Z,9.63
2018-05-04T10:36:23.243Z,9.50
2018-05-04T10:38:50.849Z,10.50
2018-05-04T10:41:18.294Z,10.03
2018-05-04T10:43:45.791Z,10.80
2018-05-04T10:46:13.326Z,10.73
2018-05-04T10:48:40.827Z,10.60
2018-05-04T10:51:08.314Z,9.30
2018-05-04T10:53:35.835Z,10.63
2018-05-04T10:56:03.336Z,10.40
2018-05-04T10:58:30.838Z,10.67
2018-05-04T11:00:58.363Z,10.47
2018-05-04T11:03:25.871Z,10.47
2018-05-04T11:05:53.365Z,10.07
2018-05-04T11:08:20.887Z,9.83
2018-05-04T11:10:48.382Z,10.43
2018-05-04T11:13:15.874Z,9.40
2018-05-04T11:15:43.393Z,9.30
2018-05-04T11:18:10.884Z,9.90
2018-05-04T11:20:38.387Z,9.57
2018-05-04T11:23:05.907Z,9.90
2018-05-04T11:25:33.406Z,10.23
2018-05-04T11:28:00.923Z,10.80
2018-05-04T11:30:28.437Z,9.83
2018-05-04T11:32:55.937Z,9.50
2018-05-04T11:35:23.428Z,9.17
2018-05-04T11:37:50.948Z,8.20
2018-05-04T11:40:18.437Z,8.07
2018-05-04T11:42:45.937Z,8.57
2018-05-04T11:45:13.463Z,8.70
2018-05-04T11:47:40.971Z,8.53
2018-05-04T11:50:08.464Z,8.90
2018-05-04T11:52:36.007Z,9.07
2018-05-04T11:55:03.514Z,8.23
2018-05-04T11:57:31.057Z,8.60
2018-05-04T11:59:58.591Z,8.70
2018-05-04T12:02:26.109Z,9.03
2018-05-04T12:04:53.685Z,8.13
2018-05-04T12:07:21.146Z,8.50
2018-05-04T12:09:48.637Z,9.47
2018-05-04T12:12:16.127Z,8.90
2018-05-04T12:14:43.641Z,8.93
2018-05-04T12:17:11.130Z,9.57
2018-05-04T12:19:38.712Z,9.20
2018-05-04T12:22:06.228Z,8.57
2018-05-04T12:24:33.709Z,8.90
2018-05-04T12:27:01.201Z,8.37
2018-05-04T12:29:28.722Z,9.47
2018-05-04T12:31:56.213Z,8.57
2018-05-04T12:34:23.706Z,7.40
2018-05-04T12:36:51.230Z,7.00
2018-05-04T12:39:18.721Z,7.40
2018-05-04T12:41:46.219Z,8.00
2018-05-04T12:44:14.016Z,7.80
2018-05-04T12:46:41.512Z,7.23
2018-05-04T12:49:09.016Z,7.53
2018-05-04T12:51:36.550Z,7.40
2018-05-04T12:54:04.087Z,7.87
2018-05-04T12:56:31.557Z,6.93
2018-05-04T12:58:59.126Z,7.40
2018-05-04T13:01:26.618Z,8.03
2018-05-04T13:03:54.105Z,7.73
2018-05-04T13:06:21.622Z,7.43
2018-05-04T13:08:49.118Z,6.30
2018-05-04T13:11:16.617Z,6.63
2018-05-04T13:13:44.129Z,7.27
2018-05-04T13:16:11.673Z,7.90
2018-05-04T13:18:39.166Z,7.33
2018-05-04T13:21:06.725Z,6.87
2018-05-04T13:23:34.219Z,6.70
2018-05-04T13:26:01.715Z,7.97
2018-05-04T13:28:29.234Z,7.77
2018-05-04T13:30:56.726Z,7.13
2018-05-04T13:33:24.317Z,7.13
2018-05-04T13:35:51.783Z,8.40
2018-05-04T13:38:19.272Z,7.53
2018-05-04T13:40:46.769Z,7.70
2018-05-04T13:43:14.295Z,8.30
2018-05-04T13:45:41.841Z,7.27
2018-05-04T13:48:09.325Z,7.87
2018-05-04T13:50:36.838Z,7.70
2018-05-04T13:53:04.327Z,8.17
2018-05-04T13:55:31.830Z,8.23
2018-05-04T13:57:59.354Z,8.27
2018-05-04T14:00:26.902Z,7.17
2018-05-04T14:02:54.398Z,7.40
2018-05-04T14:05:21.921Z,7.40
2018-05-04T14:07:49.417Z,8.10
2018-05-04T14:10:16.937Z,8.03
2018-05-04T14:12:44.540Z,8.03
2018-05-04T14:15:11.985Z,8.27
2018-05-04T14:17:39.479Z,8.23
2018-05-04T14:20:07.015Z,8.10
2018-05-04T14:22:34.522Z,8.13
2018-05-04T14:25:02.024Z,8.80
2018-05-04T14:27:29.539Z,8.90
2018-05-04T14:29:57.083Z,8.10
2018-05-04T14:32:24.575Z,8.40
2018-05-04T14:34:52.123Z,7.73
2018-05-04T14:37:19.602Z,7.93
2018-05-04T14:39:47.090Z,8.23
2018-05-04T14:42:14.609Z,7.97
2018-05-04T14:44:42.093Z,7.40
2018-05-04T14:47:09.577Z,7.60
2018-05-04T14:49:37.142Z,8.00
2018-05-04T14:52:04.688Z,8.63
2018-05-04T14:54:32.198Z,8.07
2018-05-04T14:56:59.773Z,8.20
2018-05-04T14:59:27.261Z,7.97
2018-05-04T15:01:54.781Z,7.77
2018-05-04T15:04:22.293Z,7.53
2018-05-04T15:06:49.780Z,8.47
2018-05-04T15:09:17.277Z,7.97
2018-05-04T15:11:44.785Z,8.00
2018-05-04T15:14:12.277Z,7.63
2018-05-04T15:16:39.779Z,8.00
2018-05-04T15:19:07.298Z,7.80
2018-05-04T15:21:34.840Z,8.77
2018-05-04T15:24:02.334Z,8.00
2018-05-04T15:26:29.844Z,7.97
2018-05-04T15:28:57.337Z,8.60
2018-05-04T15:31:24.911Z,9.07
2018-05-04T15:33:52.433Z,7.57
2018-05-04T15:36:19.934Z,7.77
2018-05-04T15:38:47.421Z,7.40
2018-05-04T15:41:14.929Z,7.47
2018-05-04T15:43:42.425Z,7.07
2018-05-04T15:46:09.919Z,7.60
2018-05-04T15:48:42.940Z,7.40
2018-05-04T15:51:15.959Z,7.77
2018-05-04T15:53:43.478Z,7.30
2018-05-04T15:56:10.982Z,8.23
2018-05-04T15:58:38.523Z,7.87
2018-05-04T16:01:06.097Z,7.17
2018-05-04T16:03:33.596Z,7.63
2018-05-04T16:06:01.199Z,7.60
2018-05-04T16:08:28.636Z,7.13
2018-05-04T16:10:56.138Z,7.20
2018-05-04T16:13:23.632Z,6.83
2018-05-04T16:15:51.140Z,7.33
2018-05-04T16:18:18.630Z,6.80
2018-05-04T16:20:46.112Z,7.00
2018-05-04T16:23:13.630Z,6.93
2018-05-04T16:25:41.135Z,7.37
2018-05-04T16:28:08.617Z,7.27
2018-05-04T16:30:36.140Z,6.73
2018-05-04T16:33:03.630Z,5.70
2018-05-04T16:35:31.126Z,6.60
2018-05-04T16:37:58.650Z,6.93
2018-05-04T16:40:26.146Z,6.97
2018-05-04T16:42:53.634Z,6.50
2018-05-04T16:45:21.162Z,6.50
2018-05-04T16:47:54.247Z,7.07
2018-05-04T16:50:21.756Z,7.07
2018-05-04T16:52:49.244Z,7.10
2018-05-04T16:55:16.732Z,6.67
2018-05-04T16:57:44.258Z,6.57
2018-05-04T17:00:11.779Z,6.60
2018-05-04T17:02:39.269Z,7.10
2018-05-04T17:05:06.793Z,5.60
2018-05-04T17:07:34.305Z,6.97
2018-05-04T17:10:01.799Z,6.30
2018-05-04T17:12:29.309Z,6.47
2018-05-04T17:14:56.796Z,7.10
2018-05-04T17:17:24.286Z,6.17
2018-05-04T17:19:51.802Z,5.90
2018-05-04T17:22:19.295Z,5.90
2018-05-04T17:24:46.797Z,5.93
2018-05-04T17:27:14.319Z,5.63
2018-05-04T17:29:41.819Z,5.60
2018-05-04T17:32:09.305Z,5.87
2018-05-04T17:34:36.820Z,6.00
2018-05-04T17:37:04.318Z,5.93
2018-05-04T17:39:31.819Z,5.67
2018-05-04T17:41:59.354Z,6.07
2018-05-04T17:44:26.850Z,6.27
2018-05-04T17:46:54.359Z,5.80
2018-05-04T17:49:21.877Z,6.00
2018-05-04T17:51:49.425Z,5.83
2018-05-04T17:54:16.919Z,6.23
2018-05-04T17:56:44.434Z,5.40
2018-05-04T17:59:11.927Z,5.50
2018-05-04T18:01:39.425Z,5.53
2018-05-04T18:04:06.940Z,5.37
2018-05-04T18:06:34.787Z,5.33
2018-05-04T18:09:02.305Z,5.57
2018-05-04T18:11:29.826Z,5.57
2018-05-04T18:13:57.309Z,5.00
2018-05-04T18:16:24.797Z,5.30
2018-05-04T18:18:52.318Z,5.50
2018-05-04T18:21:19.813Z,5.20
2018-05-04T18:23:47.308Z,6.00
2018-05-04T18:26:14.839Z,5.30
2018-05-04T18:28:42.326Z,5.57
2018-05-04T18:31:09.808Z,5.37
2018-05-04T18:33:37.328Z,5.83
2018-05-04T18:36:04.822Z,4.90
2018-05-04T18:38:32.313Z,5.00
2018-05-04T18:40:59.830Z,5.50
2018-05-04T18:43:27.334Z,5.20
2018-05-04T18:45:54.830Z,5.17
2018-05-04T18:48:22.412Z,5.33
2018-05-04T18:50:49.862Z,4.90
2018-05-04T18:53:17.346Z,5.13
2018-05-04T18:55:44.862Z,5.07
2018-05-04T18:58:12.351Z,5.23
2018-05-04T19:00:39.837Z,5.40
2018-05-04T19:03:12.822Z,5.27
2018-05-04T19:05:40.319Z,5.07
2018-05-04T19:08:07.879Z,4.97
2018-05-04T19:10:35.401Z,5.10
2018-05-04T19:13:02.903Z,5.17
2018-05-04T19:15:30.398Z,4.87
2018-05-04T19:17:57.913Z,5.43
2018-05-04T19:20:25.405Z,5.60
2018-05-04T19:22:52.907Z,5.40
2018-05-04T19:25:20.423Z,4.80
2018-05-04T19:27:47.918Z,4.87
2018-05-04T19:30:15.408Z,5.10
2018-05-04T19:32:42.913Z,5.10
2018-05-04T19:35:10.393Z,5.10
2018-05-04T19:37:37.877Z,5.90
2018-05-04T19:40:05.389Z,6.00
2018-05-04T19:42:32.893Z,5.67
2018-05-04T19:45:00.386Z,5.40
2018-05-04T19:47:27.897Z,5.53
2018-05-04T19:49:55.386Z,5.17
2018-05-04T19:52:22.883Z,5.57
2018-05-04T19:54:50.409Z,5.60
2018-05-04T19:57:17.902Z,5.20
2018-05-04T19:59:45.424Z,5.23
2018-05-04T20:02:12.950Z,4.80
2018-05-04T20:04:40.438Z,5.17
2018-05-04T20:07:07.963Z,5.50
2018-05-04T20:09:35.510Z,4.90
2018-05-04T20:12:03.588Z,4.83
2018-05-04T20:14:31.077Z,5.27
2018-05-04T20:16:58.598Z,4.30
2018-05-04T20:19:26.085Z,5.47
2018-05-04T20:21:53.570Z,4.97
2018-05-04T20:24:21.089Z,4.70
2018-05-04T20:26:48.573Z,4.93
2018-05-04T20:29:16.052Z,4.47
2018-05-04T20:31:43.565Z,4.67
2018-05-04T20:34:11.058Z,5.20
2018-05-04T20:36:38.609Z,4.83
2018-05-04T20:39:06.164Z,4.30
2018-05-04T20:41:33.686Z,4.67
2018-05-04T20:44:01.247Z,4.37
2018-05-04T20:46:28.822Z,4.70
2018-05-04T20:48:56.313Z,5.03
2018-05-04T20:51:23.815Z,4.23
2018-05-04T20:53:51.425Z,4.10
2018-05-04T20:56:18.943Z,4.70
2018-05-04T20:58:46.451Z,4.40
2018-05-04T21:01:14.020Z,4.20
2018-05-04T21:03:41.575Z,4.97
2018-05-04T21:06:09.107Z,4.40
2018-05-04T21:08:36.669Z,5.07
2018-05-04T21:11:04.246Z,4.50
2018-05-04T21:13:31.765Z,4.80
2018-05-04T21:15:59.288Z,4.50
2018-05-04T21:18:26.815Z,4.50
2018-05-04T21:20:54.311Z,4.47
2018-05-04T21:23:22.847Z,3.87
2018-05-04T21:25:50.356Z,3.67
2018-05-04T21:28:17.887Z,4.47
2018-05-04T21:30:45.397Z,3.77
2018-05-04T21:33:12.886Z,4.27
2018-05-04T21:35:40.387Z,3.60
2018-05-04T21:38:08.922Z,3.67
2018-05-04T21:40:36.433Z,4.20
2018-05-04T21:43:03.941Z,3.20
2018-05-04T21:45:32.038Z,4.77
2018-05-04T21:47:59.525Z,4.20
2018-05-04T21:50:27.034Z,5.20
2018-05-04T21:52:54.568Z,3.13
2018-05-04T21:55:22.077Z,4.17
2018-05-04T21:57:49.643Z,3.60
2018-05-04T22:00:17.186Z,3.80
2018-05-04T22:02:44.701Z,3.90
2018-05-04T22:05:12.200Z,3.97
2018-05-04T22:07:39.737Z,3.97
2018-05-04T22:10:07.229Z,3.57
2018-05-04T22:12:34.767Z,3.60
2018-05-04T22:15:02.332Z,4.10
2018-05-04T22:17:29.879Z,3.67
2018-05-04T22:19:57.393Z,4.70
2018-05-04T22:22:25.002Z,4.10
2018-05-04T22:24:52.562Z,4.27
2018-05-04T22:27:20.070Z,3.67
2018-05-04T22:29:47.646Z,4.63
2018-05-04T22:32:15.186Z,4.10
2018-05-04T22:37:16.725Z,3.87
2018-05-04T22:39:44.249Z,4.53
2018-05-04T22:42:11.761Z,3.23
2018-05-04T22:44:39.317Z,3.20
2018-05-04T22:47:06.850Z,4.83
2018-05-04T22:49:34.358Z,3.80
2018-05-04T22:52:01.889Z,5.23
2018-05-04T22:54:29.406Z,3.00
2018-05-04T22:56:56.925Z,3.70
2018-05-04T22:59:24.489Z,3.80
2018-05-04T23:01:52.037Z,3.60
2018-05-04T23:04:19.583Z,3.97
2018-05-04T23:06:47.123Z,3.77
2018-05-04T23:09:14.653Z,4.13
2018-05-04T23:11:42.181Z,4.10
2018-05-04T23:14:09.752Z,3.60
2018-05-04T23:16:37.315Z,3.30
2018-05-04T23:19:04.810Z,3.53
2018-05-04T23:21:32.357Z,4.30
2018-05-04T23:23:59.885Z,3.40
2018-05-04T23:26:27.415Z,3.60
2018-05-04T23:28:54.958Z,4.73
2018-05-04T23:31:22.461Z,3.67
2018-05-04T23:33:50.038Z,3.90
2018-05-04T23:36:18.530Z,3.90
2018-05-04T23:38:46.346Z,3.87
2018-05-04T23:41:13.905Z,3.93
2018-05-04T23:43:41.434Z,4.07
2018-05-04T23:46:08.974Z,3.80
2018-05-04T23:48:36.494Z,3.80
2018-05-04T23:51:04.034Z,3.87
2018-05-04T23:53:31.536Z,3.93
2018-05-04T23:55:59.026Z,3.50
2018-05-04T23:58:26.594Z,4.17
